sensor_id;sensor_type;location;lat;lon;timestamp;temperature;humidity
35700;DHT22;21818;51.078;12.108;2022-08-04T00:01:52;23.90;70.90
35700;DHT22;21818;51.078;12.108;2022-08-04T00:07:05;23.60;71.70
35700;DHT22;21818;51.078;12.108;2022-08-04T00:09:46;23.60;71.40
35700;DHT22;21818;51.078;12.108;2022-08-04T00:12:15;23.40;72.10
35700;DHT22;21818;51.078;12.108;2022-08-04T00:14:47;23.40;72.00
35700;DHT22;21818;51.078;12.108;2022-08-04T00:17:13;23.50;71.90
35700;DHT22;21818;51.078;12.108;2022-08-04T00:19:44;23.60;71.30
35700;DHT22;21818;51.078;12.108;2022-08-04T00:22:12;23.80;70.60
35700;DHT22;21818;51.078;12.108;2022-08-04T00:24:38;23.90;69.90
35700;DHT22;21818;51.078;12.108;2022-08-04T00:27:06;23.90;69.20
35700;DHT22;21818;51.078;12.108;2022-08-04T00:29:33;23.90;68.90
35700;DHT22;21818;51.078;12.108;2022-08-04T00:32:01;23.90;68.70
35700;DHT22;21818;51.078;12.108;2022-08-04T00:34:29;23.90;68.40
35700;DHT22;21818;51.078;12.108;2022-08-04T00:36:56;24.00;68.20
35700;DHT22;21818;51.078;12.108;2022-08-04T00:39:23;23.90;68.20
35700;DHT22;21818;51.078;12.108;2022-08-04T00:42:07;23.90;68.20
35700;DHT22;21818;51.078;12.108;2022-08-04T00:47:43;23.80;67.70
35700;DHT22;21818;51.078;12.108;2022-08-04T00:50:41;23.80;67.50
35700;DHT22;21818;51.078;12.108;2022-08-04T00:53:16;23.90;67.40
35700;DHT22;21818;51.078;12.108;2022-08-04T00:58:58;23.70;67.70
35700;DHT22;21818;51.078;12.108;2022-08-04T01:04:49;23.30;67.70
35700;DHT22;21818;51.078;12.108;2022-08-04T01:10:27;22.20;71.60
35700;DHT22;21818;51.078;12.108;2022-08-04T01:29:23;23.00;70.20
35700;DHT22;21818;51.078;12.108;2022-08-04T01:32:15;23.10;70.00
35700;DHT22;21818;51.078;12.108;2022-08-04T01:35:00;23.20;70.00
35700;DHT22;21818;51.078;12.108;2022-08-04T01:40:06;23.00;70.10
35700;DHT22;21818;51.078;12.108;2022-08-04T01:42:34;23.00;70.00
35700;DHT22;21818;51.078;12.108;2022-08-04T01:45:05;22.90;70.00
35700;DHT22;21818;51.078;12.108;2022-08-04T01:47:34;22.90;69.80
35700;DHT22;21818;51.078;12.108;2022-08-04T01:50:06;22.90;70.10
35700;DHT22;21818;51.078;12.108;2022-08-04T01:52:34;23.00;69.90
35700;DHT22;21818;51.078;12.108;2022-08-04T01:55:03;22.90;69.80
35700;DHT22;21818;51.078;12.108;2022-08-04T01:57:32;22.90;70.00
35700;DHT22;21818;51.078;12.108;2022-08-04T01:59:58;22.90;69.80
35700;DHT22;21818;51.078;12.108;2022-08-04T02:02:24;22.90;69.90
35700;DHT22;21818;51.078;12.108;2022-08-04T02:04:50;22.90;69.80
35700;DHT22;21818;51.078;12.108;2022-08-04T02:07:19;22.90;69.80
35700;DHT22;21818;51.078;12.108;2022-08-04T02:18:29;23.10;69.40
35700;DHT22;21818;51.078;12.108;2022-08-04T02:20:59;23.10;69.30
35700;DHT22;21818;51.078;12.108;2022-08-04T02:23:37;22.90;69.80
35700;DHT22;21818;51.078;12.108;2022-08-04T02:26:05;22.80;70.30
35700;DHT22;21818;51.078;12.108;2022-08-04T02:31:31;22.80;70.40
35700;DHT22;21818;51.078;12.108;2022-08-04T02:34:08;22.70;70.60
35700;DHT22;21818;51.078;12.108;2022-08-04T02:36:41;22.60;70.60
35700;DHT22;21818;51.078;12.108;2022-08-04T02:39:09;22.60;70.80
35700;DHT22;21818;51.078;12.108;2022-08-04T02:41:36;22.60;70.80
35700;DHT22;21818;51.078;12.108;2022-08-04T02:44:04;22.60;70.90
35700;DHT22;21818;51.078;12.108;2022-08-04T02:46:31;22.60;70.70
35700;DHT22;21818;51.078;12.108;2022-08-04T02:49:02;22.60;70.60
35700;DHT22;21818;51.078;12.108;2022-08-04T02:51:30;22.60;70.50
35700;DHT22;21818;51.078;12.108;2022-08-04T02:53:58;22.60;70.30
35700;DHT22;21818;51.078;12.108;2022-08-04T02:56:28;22.50;70.40
35700;DHT22;21818;51.078;12.108;2022-08-04T02:59:02;22.50;70.30
35700;DHT22;21818;51.078;12.108;2022-08-04T03:01:29;22.50;70.20
35700;DHT22;21818;51.078;12.108;2022-08-04T03:09:52;22.60;69.80
35700;DHT22;21818;51.078;12.108;2022-08-04T03:12:52;22.60;69.50
35700;DHT22;21818;51.078;12.108;2022-08-04T03:21:59;22.50;69.40
35700;DHT22;21818;51.078;12.108;2022-08-04T03:25:35;22.50;69.40
35700;DHT22;21818;51.078;12.108;2022-08-04T03:28:11;22.50;69.10
35700;DHT22;21818;51.078;12.108;2022-08-04T03:30:59;22.40;69.30
35700;DHT22;21818;51.078;12.108;2022-08-04T03:33:35;22.30;69.10
35700;DHT22;21818;51.078;12.108;2022-08-04T03:39:21;22.30;69.40
35700;DHT22;21818;51.078;12.108;2022-08-04T03:42:24;22.30;69.40
35700;DHT22;21818;51.078;12.108;2022-08-04T03:50:36;22.40;68.80
35700;DHT22;21818;51.078;12.108;2022-08-04T03:53:19;22.40;69.30
35700;DHT22;21818;51.078;12.108;2022-08-04T04:01:17;22.30;69.70
35700;DHT22;21818;51.078;12.108;2022-08-04T04:12:45;22.60;69.00
35700;DHT22;21818;51.078;12.108;2022-08-04T04:18:25;22.30;69.80
35700;DHT22;21818;51.078;12.108;2022-08-04T04:29:09;22.50;69.20
35700;DHT22;21818;51.078;12.108;2022-08-04T04:45:33;23.00;68.00
35700;DHT22;21818;51.078;12.108;2022-08-04T04:48:28;23.10;67.80
35700;DHT22;21818;51.078;12.108;2022-08-04T04:56:42;23.20;67.90
35700;DHT22;21818;51.078;12.108;2022-08-04T04:59:14;23.00;67.90
35700;DHT22;21818;51.078;12.108;2022-08-04T05:05:01;23.00;68.30
35700;DHT22;21818;51.078;12.108;2022-08-04T05:07:35;22.90;68.20
35700;DHT22;21818;51.078;12.108;2022-08-04T05:16:23;23.30;67.60
35700;DHT22;21818;51.078;12.108;2022-08-04T05:21:48;23.40;67.40
35700;DHT22;21818;51.078;12.108;2022-08-04T05:24:18;23.40;67.40
35700;DHT22;21818;51.078;12.108;2022-08-04T05:26:50;23.40;67.40
35700;DHT22;21818;51.078;12.108;2022-08-04T05:29:29;23.40;67.30
35700;DHT22;21818;51.078;12.108;2022-08-04T05:31:56;23.50;67.30
35700;DHT22;21818;51.078;12.108;2022-08-04T05:34:26;23.50;67.20
35700;DHT22;21818;51.078;12.108;2022-08-04T05:37:05;23.50;67.10
35700;DHT22;21818;51.078;12.108;2022-08-04T05:39:36;23.60;67.20
35700;DHT22;21818;51.078;12.108;2022-08-04T05:42:04;23.60;67.00
35700;DHT22;21818;51.078;12.108;2022-08-04T05:44:31;23.70;66.90
35700;DHT22;21818;51.078;12.108;2022-08-04T05:46:57;23.70;66.80
35700;DHT22;21818;51.078;12.108;2022-08-04T05:49:26;23.80;66.80
35700;DHT22;21818;51.078;12.108;2022-08-04T05:51:53;23.90;66.80
35700;DHT22;21818;51.078;12.108;2022-08-04T05:54:20;23.90;66.70
35700;DHT22;21818;51.078;12.108;2022-08-04T05:56:47;23.90;66.60
35700;DHT22;21818;51.078;12.108;2022-08-04T05:59:13;24.00;66.50
35700;DHT22;21818;51.078;12.108;2022-08-04T06:01:40;24.00;66.50
35700;DHT22;21818;51.078;12.108;2022-08-04T06:04:07;24.00;66.40
35700;DHT22;21818;51.078;12.108;2022-08-04T06:06:34;24.10;66.40
35700;DHT22;21818;51.078;12.108;2022-08-04T06:09:01;24.10;66.40
35700;DHT22;21818;51.078;12.108;2022-08-04T06:11:27;24.10;66.30
35700;DHT22;21818;51.078;12.108;2022-08-04T06:13:56;24.20;66.30
35700;DHT22;21818;51.078;12.108;2022-08-04T06:16:24;24.20;66.30
35700;DHT22;21818;51.078;12.108;2022-08-04T06:18:52;24.20;66.20
35700;DHT22;21818;51.078;12.108;2022-08-04T06:21:21;24.20;66.20
35700;DHT22;21818;51.078;12.108;2022-08-04T06:23:48;24.20;66.20
35700;DHT22;21818;51.078;12.108;2022-08-04T06:26:15;24.30;66.20
35700;DHT22;21818;51.078;12.108;2022-08-04T06:28:49;24.30;66.10
35700;DHT22;21818;51.078;12.108;2022-08-04T06:31:17;24.30;66.10
35700;DHT22;21818;51.078;12.108;2022-08-04T06:34:03;24.30;66.00
35700;DHT22;21818;51.078;12.108;2022-08-04T06:36:30;24.40;66.10
35700;DHT22;21818;51.078;12.108;2022-08-04T06:39:00;24.40;66.00
35700;DHT22;21818;51.078;12.108;2022-08-04T06:41:28;24.40;66.00
35700;DHT22;21818;51.078;12.108;2022-08-04T06:43:54;24.40;66.00
35700;DHT22;21818;51.078;12.108;2022-08-04T06:46:22;24.50;66.00
35700;DHT22;21818;51.078;12.108;2022-08-04T06:48:48;24.50;66.00
35700;DHT22;21818;51.078;12.108;2022-08-04T06:51:15;24.50;66.00
35700;DHT22;21818;51.078;12.108;2022-08-04T06:53:42;24.50;65.90
35700;DHT22;21818;51.078;12.108;2022-08-04T06:56:08;24.50;65.90
35700;DHT22;21818;51.078;12.108;2022-08-04T06:58:36;24.50;65.90
35700;DHT22;21818;51.078;12.108;2022-08-04T07:01:03;24.60;65.90
35700;DHT22;21818;51.078;12.108;2022-08-04T07:03:30;24.60;65.80
35700;DHT22;21818;51.078;12.108;2022-08-04T07:05:56;24.60;65.80
35700;DHT22;21818;51.078;12.108;2022-08-04T07:08:22;24.60;65.70
35700;DHT22;21818;51.078;12.108;2022-08-04T07:10:49;24.60;65.70
35700;DHT22;21818;51.078;12.108;2022-08-04T07:13:17;24.60;65.60
35700;DHT22;21818;51.078;12.108;2022-08-04T07:15:46;24.70;65.70
35700;DHT22;21818;51.078;12.108;2022-08-04T07:18:12;24.70;65.60
35700;DHT22;21818;51.078;12.108;2022-08-04T07:20:42;24.70;65.60
35700;DHT22;21818;51.078;12.108;2022-08-04T07:23:08;24.70;65.60
35700;DHT22;21818;51.078;12.108;2022-08-04T07:25:36;24.80;65.60
35700;DHT22;21818;51.078;12.108;2022-08-04T07:28:02;24.80;65.60
35700;DHT22;21818;51.078;12.108;2022-08-04T07:30:29;24.80;65.50
35700;DHT22;21818;51.078;12.108;2022-08-04T07:32:56;24.80;66.00
35700;DHT22;21818;51.078;12.108;2022-08-04T07:35:23;24.80;65.40
35700;DHT22;21818;51.078;12.108;2022-08-04T07:37:49;24.80;65.30
35700;DHT22;21818;51.078;12.108;2022-08-04T07:40:14;24.80;65.30
35700;DHT22;21818;51.078;12.108;2022-08-04T07:42:40;24.80;65.20
35700;DHT22;21818;51.078;12.108;2022-08-04T07:45:08;24.90;65.20
35700;DHT22;21818;51.078;12.108;2022-08-04T07:47:34;24.90;65.20
35700;DHT22;21818;51.078;12.108;2022-08-04T07:50:00;24.90;65.20
35700;DHT22;21818;51.078;12.108;2022-08-04T07:52:26;24.90;65.20
35700;DHT22;21818;51.078;12.108;2022-08-04T07:54:52;24.90;65.20
35700;DHT22;21818;51.078;12.108;2022-08-04T07:57:19;25.00;65.20
35700;DHT22;21818;51.078;12.108;2022-08-04T07:59:45;25.00;65.20
35700;DHT22;21818;51.078;12.108;2022-08-04T08:02:13;25.00;65.20
35700;DHT22;21818;51.078;12.108;2022-08-04T08:04:40;25.00;65.20
35700;DHT22;21818;51.078;12.108;2022-08-04T08:07:07;25.00;65.10
35700;DHT22;21818;51.078;12.108;2022-08-04T08:09:32;25.10;65.20
35700;DHT22;21818;51.078;12.108;2022-08-04T08:11:58;25.10;65.20
35700;DHT22;21818;51.078;12.108;2022-08-04T08:14:26;25.10;65.20
35700;DHT22;21818;51.078;12.108;2022-08-04T08:16:52;25.10;65.20
35700;DHT22;21818;51.078;12.108;2022-08-04T08:19:18;25.10;65.10
35700;DHT22;21818;51.078;12.108;2022-08-04T08:21:47;25.10;65.10
35700;DHT22;21818;51.078;12.108;2022-08-04T08:24:14;25.10;65.10
35700;DHT22;21818;51.078;12.108;2022-08-04T08:26:40;25.10;65.10
35700;DHT22;21818;51.078;12.108;2022-08-04T08:29:06;25.20;65.10
35700;DHT22;21818;51.078;12.108;2022-08-04T08:31:32;25.20;65.10
35700;DHT22;21818;51.078;12.108;2022-08-04T08:33:59;25.20;65.10
35700;DHT22;21818;51.078;12.108;2022-08-04T08:36:44;25.20;65.10
35700;DHT22;21818;51.078;12.108;2022-08-04T09:10:48;25.30;65.00
35700;DHT22;21818;51.078;12.108;2022-08-04T09:19:08;25.40;64.90
35700;DHT22;21818;51.078;12.108;2022-08-04T09:21:44;25.40;64.80
35700;DHT22;21818;51.078;12.108;2022-08-04T09:24:16;25.40;64.90
35700;DHT22;21818;51.078;12.108;2022-08-04T09:26:49;25.40;64.90
35700;DHT22;21818;51.078;12.108;2022-08-04T09:29:46;25.50;64.90
35700;DHT22;21818;51.078;12.108;2022-08-04T09:46:33;25.50;64.70
35700;DHT22;21818;51.078;12.108;2022-08-04T09:49:11;25.50;64.70
35700;DHT22;21818;51.078;12.108;2022-08-04T09:54:41;25.50;64.60
35700;DHT22;21818;51.078;12.108;2022-08-04T10:02:52;25.50;64.60
35700;DHT22;21818;51.078;12.108;2022-08-04T10:05:22;25.60;64.70
35700;DHT22;21818;51.078;12.108;2022-08-04T10:16:10;25.60;64.60
35700;DHT22;21818;51.078;12.108;2022-08-04T10:22:45;25.60;64.50
35700;DHT22;21818;51.078;12.108;2022-08-04T10:28:04;25.60;64.60
35700;DHT22;21818;51.078;12.108;2022-08-04T10:30:32;25.70;64.60
35700;DHT22;21818;51.078;12.108;2022-08-04T10:35:36;25.70;64.50
35700;DHT22;21818;51.078;12.108;2022-08-04T10:38:09;25.70;64.50
35700;DHT22;21818;51.078;12.108;2022-08-04T10:40:49;25.70;64.50
35700;DHT22;21818;51.078;12.108;2022-08-04T10:46:30;25.70;64.40
35700;DHT22;21818;51.078;12.108;2022-08-04T10:48:57;25.70;64.40
35700;DHT22;21818;51.078;12.108;2022-08-04T10:54:16;25.80;64.40
35700;DHT22;21818;51.078;12.108;2022-08-04T10:56:49;25.80;64.40
35700;DHT22;21818;51.078;12.108;2022-08-04T10:59:26;25.80;64.40
35700;DHT22;21818;51.078;12.108;2022-08-04T11:01:58;25.80;64.30
35700;DHT22;21818;51.078;12.108;2022-08-04T11:04:41;25.80;64.30
35700;DHT22;21818;51.078;12.108;2022-08-04T11:07:09;25.80;64.90
35700;DHT22;21818;51.078;12.108;2022-08-04T11:09:37;25.90;64.40
35700;DHT22;21818;51.078;12.108;2022-08-04T11:12:24;25.90;64.40
35700;DHT22;21818;51.078;12.108;2022-08-04T11:17:34;25.90;64.30
35700;DHT22;21818;51.078;12.108;2022-08-04T11:20:37;25.90;64.30
35700;DHT22;21818;51.078;12.108;2022-08-04T11:23:11;25.90;64.30
35700;DHT22;21818;51.078;12.108;2022-08-04T11:25:54;25.90;64.20
35700;DHT22;21818;51.078;12.108;2022-08-04T11:28:49;25.90;64.20
35700;DHT22;21818;51.078;12.108;2022-08-04T11:31:18;25.90;64.20
35700;DHT22;21818;51.078;12.108;2022-08-04T11:36:43;26.00;64.30
35700;DHT22;21818;51.078;12.108;2022-08-04T11:39:33;26.00;64.30
35700;DHT22;21818;51.078;12.108;2022-08-04T11:42:27;26.00;64.20
35700;DHT22;21818;51.078;12.108;2022-08-04T11:45:02;26.00;64.20
35700;DHT22;21818;51.078;12.108;2022-08-04T11:50:20;26.00;64.20
35700;DHT22;21818;51.078;12.108;2022-08-04T11:52:47;26.00;64.20
35700;DHT22;21818;51.078;12.108;2022-08-04T11:55:15;26.00;64.20
35700;DHT22;21818;51.078;12.108;2022-08-04T11:57:42;26.10;64.20
35700;DHT22;21818;51.078;12.108;2022-08-04T12:00:11;26.10;64.20
35700;DHT22;21818;51.078;12.108;2022-08-04T12:02:46;26.00;64.10
35700;DHT22;21818;51.078;12.108;2022-08-04T12:05:18;26.00;64.10
35700;DHT22;21818;51.078;12.108;2022-08-04T12:07:59;26.10;64.20
35700;DHT22;21818;51.078;12.108;2022-08-04T12:11:24;26.10;64.10
35700;DHT22;21818;51.078;12.108;2022-08-04T12:14:19;26.10;64.10
35700;DHT22;21818;51.078;12.108;2022-08-04T12:17:05;26.10;64.10
35700;DHT22;21818;51.078;12.108;2022-08-04T12:22:10;26.10;64.10
35700;DHT22;21818;51.078;12.108;2022-08-04T12:27:20;26.10;64.10
35700;DHT22;21818;51.078;12.108;2022-08-04T12:29:48;26.10;64.10
35700;DHT22;21818;51.078;12.108;2022-08-04T12:35:21;26.10;64.10
35700;DHT22;21818;51.078;12.108;2022-08-04T12:37:50;26.20;64.10
35700;DHT22;21818;51.078;12.108;2022-08-04T12:40:35;26.20;64.10
35700;DHT22;21818;51.078;12.108;2022-08-04T12:43:08;26.20;64.10
35700;DHT22;21818;51.078;12.108;2022-08-04T12:45:35;26.20;64.00
35700;DHT22;21818;51.078;12.108;2022-08-04T12:48:05;26.20;64.00
35700;DHT22;21818;51.078;12.108;2022-08-04T12:50:32;26.20;64.00
35700;DHT22;21818;51.078;12.108;2022-08-04T12:52:58;26.20;64.00
35700;DHT22;21818;51.078;12.108;2022-08-04T12:55:28;26.20;64.00
35700;DHT22;21818;51.078;12.108;2022-08-04T12:57:54;26.30;64.00
35700;DHT22;21818;51.078;12.108;2022-08-04T13:00:27;26.30;64.00
35700;DHT22;21818;51.078;12.108;2022-08-04T13:02:53;26.30;64.00
35700;DHT22;21818;51.078;12.108;2022-08-04T13:05:24;26.30;64.00
35700;DHT22;21818;51.078;12.108;2022-08-04T13:07:51;26.30;64.00
35700;DHT22;21818;51.078;12.108;2022-08-04T13:10:21;26.30;63.90
35700;DHT22;21818;51.078;12.108;2022-08-04T13:12:55;26.30;63.90
35700;DHT22;21818;51.078;12.108;2022-08-04T13:15:23;26.30;63.90
35700;DHT22;21818;51.078;12.108;2022-08-04T13:17:55;26.30;63.90
35700;DHT22;21818;51.078;12.108;2022-08-04T13:20:33;26.40;63.90
35700;DHT22;21818;51.078;12.108;2022-08-04T13:23:08;26.30;63.80
35700;DHT22;21818;51.078;12.108;2022-08-04T13:25:39;26.30;63.80
35700;DHT22;21818;51.078;12.108;2022-08-04T13:28:11;26.40;63.90
35700;DHT22;21818;51.078;12.108;2022-08-04T13:30:38;26.40;63.80
35700;DHT22;21818;51.078;12.108;2022-08-04T13:33:04;26.40;63.80
35700;DHT22;21818;51.078;12.108;2022-08-04T13:35:31;26.40;63.80
35700;DHT22;21818;51.078;12.108;2022-08-04T13:37:59;26.40;63.80
35700;DHT22;21818;51.078;12.108;2022-08-04T13:40:25;26.40;63.80
35700;DHT22;21818;51.078;12.108;2022-08-04T13:42:53;26.50;63.80
35700;DHT22;21818;51.078;12.108;2022-08-04T13:45:22;26.50;63.80
35700;DHT22;21818;51.078;12.108;2022-08-04T13:47:49;26.50;63.80
35700;DHT22;21818;51.078;12.108;2022-08-04T13:50:22;26.50;63.80
35700;DHT22;21818;51.078;12.108;2022-08-04T13:52:52;26.50;63.80
35700;DHT22;21818;51.078;12.108;2022-08-04T13:55:24;26.50;63.80
35700;DHT22;21818;51.078;12.108;2022-08-04T13:58:20;26.50;63.80
35700;DHT22;21818;51.078;12.108;2022-08-04T14:03:30;26.50;63.70
35700;DHT22;21818;51.078;12.108;2022-08-04T14:11:10;26.60;63.70
35700;DHT22;21818;51.078;12.108;2022-08-04T14:13:36;26.50;63.70
35700;DHT22;21818;51.078;12.108;2022-08-04T14:16:13;26.50;63.70
35700;DHT22;21818;51.078;12.108;2022-08-04T14:18:39;26.60;63.70
35700;DHT22;21818;51.078;12.108;2022-08-04T14:26:32;26.60;63.60
35700;DHT22;21818;51.078;12.108;2022-08-04T14:29:10;26.60;63.70
35700;DHT22;21818;51.078;12.108;2022-08-04T14:31:36;26.60;63.60
35700;DHT22;21818;51.078;12.108;2022-08-04T14:34:02;26.60;63.60
35700;DHT22;21818;51.078;12.108;2022-08-04T14:36:46;26.70;64.20
35700;DHT22;21818;51.078;12.108;2022-08-04T14:39:12;26.70;63.60
35700;DHT22;21818;51.078;12.108;2022-08-04T14:41:49;26.70;64.10
35700;DHT22;21818;51.078;12.108;2022-08-04T14:44:15;26.70;63.50
35700;DHT22;21818;51.078;12.108;2022-08-04T14:46:52;26.80;63.60
35700;DHT22;21818;51.078;12.108;2022-08-04T14:49:18;26.80;63.60
35700;DHT22;21818;51.078;12.108;2022-08-04T14:52:05;26.80;63.60
35700;DHT22;21818;51.078;12.108;2022-08-04T14:54:32;26.80;63.50
35700;DHT22;21818;51.078;12.108;2022-08-04T14:57:06;26.80;63.50
35700;DHT22;21818;51.078;12.108;2022-08-04T14:59:43;26.80;63.40
35700;DHT22;21818;51.078;12.108;2022-08-04T15:02:10;26.80;63.40
35700;DHT22;21818;51.078;12.108;2022-08-04T15:04:37;26.80;63.40
35700;DHT22;21818;51.078;12.108;2022-08-04T15:07:03;26.80;63.40
35700;DHT22;21818;51.078;12.108;2022-08-04T15:09:30;26.80;63.40
35700;DHT22;21818;51.078;12.108;2022-08-04T15:11:56;26.90;63.40
35700;DHT22;21818;51.078;12.108;2022-08-04T15:14:22;26.90;63.40
35700;DHT22;21818;51.078;12.108;2022-08-04T15:16:48;26.80;63.30
35700;DHT22;21818;51.078;12.108;2022-08-04T15:19:14;26.90;63.40
35700;DHT22;21818;51.078;12.108;2022-08-04T15:21:40;26.90;63.30
35700;DHT22;21818;51.078;12.108;2022-08-04T15:24:06;26.90;63.30
35700;DHT22;21818;51.078;12.108;2022-08-04T15:26:41;26.90;63.30
35700;DHT22;21818;51.078;12.108;2022-08-04T15:31:56;27.00;63.30
35700;DHT22;21818;51.078;12.108;2022-08-04T15:34:26;27.00;63.30
35700;DHT22;21818;51.078;12.108;2022-08-04T15:36:54;27.00;63.30
35700;DHT22;21818;51.078;12.108;2022-08-04T15:39:37;27.00;63.30
35700;DHT22;21818;51.078;12.108;2022-08-04T15:42:38;27.00;63.30
35700;DHT22;21818;51.078;12.108;2022-08-04T15:45:26;27.00;63.20
35700;DHT22;21818;51.078;12.108;2022-08-04T15:50:30;27.10;63.30
35700;DHT22;21818;51.078;12.108;2022-08-04T15:53:00;27.10;63.20
35700;DHT22;21818;51.078;12.108;2022-08-04T15:55:30;27.10;63.30
35700;DHT22;21818;51.078;12.108;2022-08-04T15:58:01;27.10;63.20
35700;DHT22;21818;51.078;12.108;2022-08-04T16:00:28;27.10;63.20
35700;DHT22;21818;51.078;12.108;2022-08-04T16:05:58;27.10;63.10
35700;DHT22;21818;51.078;12.108;2022-08-04T16:08:24;27.20;63.20
35700;DHT22;21818;51.078;12.108;2022-08-04T16:10:50;27.20;63.20
35700;DHT22;21818;51.078;12.108;2022-08-04T16:13:19;27.20;63.20
35700;DHT22;21818;51.078;12.108;2022-08-04T16:15:52;27.20;63.10
35700;DHT22;21818;51.078;12.108;2022-08-04T16:18:37;27.20;63.00
35700;DHT22;21818;51.078;12.108;2022-08-04T16:21:05;27.20;63.00
35700;DHT22;21818;51.078;12.108;2022-08-04T16:32:07;27.30;63.10
35700;DHT22;21818;51.078;12.108;2022-08-04T16:34:57;27.30;63.00
35700;DHT22;21818;51.078;12.108;2022-08-04T16:37:32;27.30;63.00
35700;DHT22;21818;51.078;12.108;2022-08-04T16:42:48;27.30;62.90
35700;DHT22;21818;51.078;12.108;2022-08-04T16:45:14;27.30;63.00
35700;DHT22;21818;51.078;12.108;2022-08-04T16:50:12;27.40;63.10
35700;DHT22;21818;51.078;12.108;2022-08-04T16:52:46;27.40;63.00
35700;DHT22;21818;51.078;12.108;2022-08-04T16:55:14;27.40;63.00
35700;DHT22;21818;51.078;12.108;2022-08-04T16:57:41;27.40;63.00
35700;DHT22;21818;51.078;12.108;2022-08-04T17:00:10;27.40;63.00
35700;DHT22;21818;51.078;12.108;2022-08-04T17:02:36;27.40;62.90
35700;DHT22;21818;51.078;12.108;2022-08-04T17:05:01;27.40;62.90
35700;DHT22;21818;51.078;12.108;2022-08-04T17:07:27;27.40;62.90
35700;DHT22;21818;51.078;12.108;2022-08-04T17:09:53;27.50;63.00
35700;DHT22;21818;51.078;12.108;2022-08-04T17:12:19;27.50;63.00
35700;DHT22;21818;51.078;12.108;2022-08-04T17:14:51;27.50;62.90
35700;DHT22;21818;51.078;12.108;2022-08-04T17:17:21;27.50;62.90
35700;DHT22;21818;51.078;12.108;2022-08-04T17:19:51;27.50;62.90
35700;DHT22;21818;51.078;12.108;2022-08-04T17:22:18;27.50;62.80
35700;DHT22;21818;51.078;12.108;2022-08-04T17:24:44;27.50;62.90
35700;DHT22;21818;51.078;12.108;2022-08-04T17:27:10;27.50;62.80
35700;DHT22;21818;51.078;12.108;2022-08-04T17:29:36;27.50;62.80
35700;DHT22;21818;51.078;12.108;2022-08-04T17:32:02;27.60;62.80
35700;DHT22;21818;51.078;12.108;2022-08-04T17:34:28;27.60;62.80
35700;DHT22;21818;51.078;12.108;2022-08-04T17:36:54;27.60;62.80
35700;DHT22;21818;51.078;12.108;2022-08-04T17:39:20;27.60;62.80
35700;DHT22;21818;51.078;12.108;2022-08-04T17:41:54;27.60;62.80
35700;DHT22;21818;51.078;12.108;2022-08-04T17:44:19;27.60;62.70
35700;DHT22;21818;51.078;12.108;2022-08-04T17:46:45;27.60;62.70
35700;DHT22;21818;51.078;12.108;2022-08-04T17:51:49;27.60;62.70
35700;DHT22;21818;51.078;12.108;2022-08-04T17:54:17;27.70;62.70
35700;DHT22;21818;51.078;12.108;2022-08-04T17:56:48;27.70;62.70
35700;DHT22;21818;51.078;12.108;2022-08-04T17:59:30;27.70;62.70
35700;DHT22;21818;51.078;12.108;2022-08-04T18:02:05;27.70;62.70
35700;DHT22;21818;51.078;12.108;2022-08-04T18:04:33;27.70;62.70
35700;DHT22;21818;51.078;12.108;2022-08-04T18:07:09;27.70;62.70
35700;DHT22;21818;51.078;12.108;2022-08-04T18:10:01;27.70;62.70
35700;DHT22;21818;51.078;12.108;2022-08-04T18:12:33;27.70;62.70
35700;DHT22;21818;51.078;12.108;2022-08-04T18:15:04;27.70;62.60
35700;DHT22;21818;51.078;12.108;2022-08-04T18:17:39;27.70;63.30
35700;DHT22;21818;51.078;12.108;2022-08-04T18:20:12;27.80;62.70
35700;DHT22;21818;51.078;12.108;2022-08-04T18:22:40;27.80;62.80
35700;DHT22;21818;51.078;12.108;2022-08-04T18:25:08;27.80;62.80
35700;DHT22;21818;51.078;12.108;2022-08-04T18:27:34;27.80;62.80
35700;DHT22;21818;51.078;12.108;2022-08-04T18:30:00;27.80;62.80
35700;DHT22;21818;51.078;12.108;2022-08-04T18:32:26;27.80;62.70
35700;DHT22;21818;51.078;12.108;2022-08-04T18:34:53;27.80;62.80
35700;DHT22;21818;51.078;12.108;2022-08-04T18:37:19;27.80;62.80
35700;DHT22;21818;51.078;12.108;2022-08-04T18:39:45;27.90;62.80
35700;DHT22;21818;51.078;12.108;2022-08-04T18:42:12;27.90;62.80
35700;DHT22;21818;51.078;12.108;2022-08-04T18:44:37;27.90;62.80
35700;DHT22;21818;51.078;12.108;2022-08-04T18:47:03;27.90;62.90
35700;DHT22;21818;51.078;12.108;2022-08-04T18:49:30;27.90;62.70
35700;DHT22;21818;51.078;12.108;2022-08-04T18:51:56;27.90;62.70
35700;DHT22;21818;51.078;12.108;2022-08-04T18:54:22;27.90;62.70
35700;DHT22;21818;51.078;12.108;2022-08-04T18:56:50;27.90;62.70
35700;DHT22;21818;51.078;12.108;2022-08-04T18:59:16;27.90;62.70
35700;DHT22;21818;51.078;12.108;2022-08-04T19:01:42;28.00;62.80
35700;DHT22;21818;51.078;12.108;2022-08-04T19:04:09;27.90;62.70
35700;DHT22;21818;51.078;12.108;2022-08-04T19:06:35;28.00;62.80
35700;DHT22;21818;51.078;12.108;2022-08-04T19:09:01;27.90;62.70
35700;DHT22;21818;51.078;12.108;2022-08-04T19:11:28;28.00;62.70
35700;DHT22;21818;51.078;12.108;2022-08-04T19:13:53;28.00;62.80
35700;DHT22;21818;51.078;12.108;2022-08-04T19:16:20;27.90;62.90
35700;DHT22;21818;51.078;12.108;2022-08-04T19:18:45;27.90;63.10
35700;DHT22;21818;51.078;12.108;2022-08-04T19:21:11;27.90;63.10
35700;DHT22;21818;51.078;12.108;2022-08-04T19:23:36;27.90;63.10
35700;DHT22;21818;51.078;12.108;2022-08-04T19:26:02;27.90;63.30
35700;DHT22;21818;51.078;12.108;2022-08-04T19:28:29;27.90;63.40
35700;DHT22;21818;51.078;12.108;2022-08-04T19:30:55;27.80;63.20
35700;DHT22;21818;51.078;12.108;2022-08-04T19:33:21;27.90;63.20
35700;DHT22;21818;51.078;12.108;2022-08-04T19:35:47;27.90;63.00
35700;DHT22;21818;51.078;12.108;2022-08-04T19:38:12;27.90;63.00
35700;DHT22;21818;51.078;12.108;2022-08-04T19:40:39;27.90;63.00
35700;DHT22;21818;51.078;12.108;2022-08-04T19:43:05;27.80;63.00
35700;DHT22;21818;51.078;12.108;2022-08-04T19:45:32;27.80;62.90
35700;DHT22;21818;51.078;12.108;2022-08-04T19:47:58;27.90;63.40
35700;DHT22;21818;51.078;12.108;2022-08-04T19:50:25;27.90;62.80
35700;DHT22;21818;51.078;12.108;2022-08-04T19:52:51;27.90;62.70
35700;DHT22;21818;51.078;12.108;2022-08-04T19:55:17;27.90;62.70
35700;DHT22;21818;51.078;12.108;2022-08-04T19:57:42;27.90;62.50
35700;DHT22;21818;51.078;12.108;2022-08-04T20:00:09;27.90;62.40
35700;DHT22;21818;51.078;12.108;2022-08-04T20:02:37;27.90;62.40